Time;durP1;ratioP1;P1;durP2;ratioP2;P2;SDS_P1;SDS_P2;PMS_P1;PMS_P2;Temp;Humidity;BMP_temperature;BMP_pressure;BME280_temperature;BME280_humidity;BME280_pressure;Samples;Min_cycle;Max_cycle;Signal;HPM_P1;HPM_P2
2022/08/29 00:01:20;;;;;;;438.13;191.50;;;;;;;;;;7332269;19;162516;-15
2022/08/29 00:03:51;;;;;;;442.00;191.88;;;;;;;;;;7334057;19;154488;-22
2022/08/29 00:06:25;;;;;;;424.02;191.02;;;;;;;;;;7333637;19;153655;-15
2022/08/29 00:08:56;;;;;;;442.98;199.82;;;;;;;;;;7333270;19;161879;-14
2022/08/29 00:11:30;;;;;;;442.65;194.75;;;;;;;;;;7333157;19;162395;-14
2022/08/29 00:14:02;;;;;;;424.13;182.57;;;;;;;;;;7331689;19;154012;-15
2022/08/29 00:16:36;;;;;;;426.02;193.68;;;;;;;;;;7333375;19;153719;-14
2022/08/29 00:19:12;;;;;;;414.45;183.55;;;;;;;;;;7333129;19;161958;-14
2022/08/29 00:21:50;;;;;;;413.60;187.50;;;;;;;;;;7332831;19;162538;-14
2022/08/29 00:24:24;;;;;;;419.85;189.77;;;;;;;;;;7332955;19;154512;-14
2022/08/29 00:26:58;;;;;;;431.83;182.05;;;;;;;;;;7334738;19;153703;-14
2022/08/29 00:29:30;;;;;;;417.08;184.50;;;;;;;;;;7331362;19;161875;-14
2022/08/29 00:32:01;;;;;;;421.80;188.95;;;;;;;;;;7331446;19;162363;-14
2022/08/29 00:34:32;;;;;;;413.70;182.10;;;;;;;;;;7330494;19;154108;-15
2022/08/29 00:37:06;;;;;;;423.45;186.23;;;;;;;;;;7333087;19;153836;-14
2022/08/29 00:39:38;;;;;;;402.98;180.45;;;;;;;;;;7332437;19;162112;-14
2022/08/29 00:42:09;;;;;;;413.80;182.57;;;;;;;;;;7332263;19;162488;-14
2022/08/29 00:44:45;;;;;;;412.23;177.32;;;;;;;;;;7335494;19;154076;-14
2022/08/29 00:47:21;;;;;;;419.92;182.27;;;;;;;;;;7336149;19;153756;-14
2022/08/29 00:49:56;;;;;;;404.30;174.48;;;;;;;;;;7334022;19;161837;-14
2022/08/29 00:52:35;;;;;;;399.83;173.88;;;;;;;;;;7335560;19;163107;-14
2022/08/29 00:55:11;;;;;;;394.02;172.02;;;;;;;;;;7333702;19;154129;-18
2022/08/29 00:57:45;;;;;;;383.25;170.43;;;;;;;;;;7334935;19;154208;-14
2022/08/29 01:00:21;;;;;;;387.23;171.77;;;;;;;;;;7334955;19;161819;-14
2022/08/29 01:02:53;;;;;;;381.23;169.73;;;;;;;;;;7334979;19;162190;-14
2022/08/29 01:05:25;;;;;;;397.07;171.43;;;;;;;;;;7335198;19;154019;-15
2022/08/29 01:07:59;;;;;;;389.45;167.18;;;;;;;;;;7335437;19;153663;-14
2022/08/29 01:13:16;;;;;;;396.02;174.13;;;;;;;;;;7334022;19;162486;-14
2022/08/29 01:15:49;;;;;;;385.45;170.20;;;;;;;;;;7334865;19;154009;-14
2022/08/29 01:18:21;;;;;;;379.55;167.48;;;;;;;;;;7334564;19;153881;-14
2022/08/29 01:21:02;;;;;;;370.40;163.73;;;;;;;;;;7334559;19;162107;-14
2022/08/29 01:23:43;;;;;;;366.23;160.25;;;;;;;;;;7334771;19;162549;-15
2022/08/29 01:26:21;;;;;;;365.20;162.05;;;;;;;;;;7335717;19;154066;-15
2022/08/29 01:28:54;;;;;;;370.48;165.25;;;;;;;;;;7331653;19;153690;-15
2022/08/29 01:31:27;;;;;;;360.48;164.50;;;;;;;;;;7331613;19;161689;-15
2022/08/29 01:33:59;;;;;;;369.25;161.10;;;;;;;;;;7329960;19;162411;-15
2022/08/29 01:36:38;;;;;;;370.00;164.75;;;;;;;;;;7330571;19;154097;-15
2022/08/29 01:39:09;;;;;;;356.70;153.75;;;;;;;;;;7331029;19;153709;-15
2022/08/29 01:41:45;;;;;;;356.58;156.05;;;;;;;;;;7330679;19;161888;-15
2022/08/29 01:44:18;;;;;;;353.35;156.95;;;;;;;;;;7330758;19;162508;-15
2022/08/29 01:46:55;;;;;;;366.48;161.75;;;;;;;;;;7330954;19;154204;-16
2022/08/29 01:49:30;;;;;;;362.42;157.35;;;;;;;;;;7330800;19;153988;-15
2022/08/29 01:52:01;;;;;;;363.92;156.95;;;;;;;;;;7330710;19;161902;-15
2022/08/29 01:54:33;;;;;;;351.63;152.82;;;;;;;;;;7328760;19;162547;-24
2022/08/29 01:57:07;;;;;;;348.27;157.20;;;;;;;;;;7330834;19;154117;-15
2022/08/29 01:59:43;;;;;;;341.55;157.57;;;;;;;;;;7330520;19;153677;-15
2022/08/29 02:02:18;;;;;;;353.50;152.57;;;;;;;;;;7332960;19;161803;-15
2022/08/29 02:04:50;;;;;;;358.13;157.32;;;;;;;;;;7330247;19;162345;-15
2022/08/29 02:07:24;;;;;;;346.58;154.90;;;;;;;;;;7329448;19;154047;-15
2022/08/29 02:09:55;;;;;;;364.17;154.02;;;;;;;;;;7330420;19;153465;-18
2022/08/29 02:12:30;;;;;;;343.65;151.70;;;;;;;;;;7329852;19;162380;-15
2022/08/29 02:15:06;;;;;;;342.27;152.73;;;;;;;;;;7328003;19;162527;-15
2022/08/29 02:17:37;;;;;;;337.73;150.35;;;;;;;;;;7330228;19;154045;-16
2022/08/29 02:20:10;;;;;;;345.15;151.50;;;;;;;;;;7330052;19;153703;-15
2022/08/29 02:22:42;;;;;;;325.58;148.30;;;;;;;;;;7329567;19;161934;-15
2022/08/29 02:28:00;;;;;;;335.55;150.18;;;;;;;;;;7329774;19;154126;-15
2022/08/29 02:30:34;;;;;;;324.83;147.60;;;;;;;;;;7333528;19;154058;-15
2022/08/29 02:33:05;;;;;;;323.85;150.75;;;;;;;;;;7332610;19;161893;-15
2022/08/29 02:35:39;;;;;;;335.65;150.23;;;;;;;;;;7327035;19;162610;-15
2022/08/29 02:38:15;;;;;;;322.50;148.93;;;;;;;;;;7329677;19;154205;-16
2022/08/29 02:40:48;;;;;;;309.52;142.32;;;;;;;;;;7329623;19;153942;-15
2022/08/29 02:43:25;;;;;;;336.08;150.75;;;;;;;;;;7329070;19;161823;-16
2022/08/29 02:45:56;;;;;;;322.48;149.45;;;;;;;;;;7327750;19;162579;-16
2022/08/29 02:48:27;;;;;;;309.30;135.32;;;;;;;;;;7329313;19;154062;-15
2022/08/29 02:51:00;;;;;;;309.90;145.48;;;;;;;;;;7335423;19;153573;-15
2022/08/29 02:53:32;;;;;;;310.77;141.23;;;;;;;;;;7335593;19;161930;-16
2022/08/29 02:56:09;;;;;;;313.30;140.63;;;;;;;;;;7333428;19;162388;-15
2022/08/29 02:58:43;;;;;;;312.35;140.13;;;;;;;;;;7335826;19;154114;-15
2022/08/29 03:01:16;;;;;;;324.52;140.32;;;;;;;;;;7336521;19;153783;-15
2022/08/29 03:03:49;;;;;;;302.67;140.73;;;;;;;;;;7335262;19;161924;-16
2022/08/29 03:06:22;;;;;;;312.15;142.85;;;;;;;;;;7334138;19;162460;-15
2022/08/29 03:08:54;;;;;;;305.13;138.13;;;;;;;;;;7335492;19;154747;-16
2022/08/29 03:11:27;;;;;;;319.88;144.82;;;;;;;;;;7335659;19;153822;-16
2022/08/29 03:14:01;;;;;;;308.10;139.82;;;;;;;;;;7335124;19;162050;-15
2022/08/29 03:16:32;;;;;;;292.83;129.60;;;;;;;;;;7332752;19;162351;-15
2022/08/29 03:19:04;;;;;;;293.88;138.63;;;;;;;;;;7335128;19;154011;-15
2022/08/29 03:21:35;;;;;;;296.77;135.37;;;;;;;;;;7339620;19;153846;-15
2022/08/29 03:24:07;;;;;;;297.55;133.60;;;;;;;;;;7334860;19;161851;-15
2022/08/29 03:26:39;;;;;;;294.05;132.15;;;;;;;;;;7333440;19;162497;-15
2022/08/29 03:29:13;;;;;;;281.85;132.02;;;;;;;;;;7334976;19;154061;-15
2022/08/29 03:31:44;;;;;;;297.63;137.38;;;;;;;;;;7336405;19;153760;-15
2022/08/29 03:34:16;;;;;;;286.95;133.00;;;;;;;;;;7333499;19;162002;-15
2022/08/29 03:36:48;;;;;;;301.35;137.55;;;;;;;;;;7332020;19;162615;-15
2022/08/29 03:39:20;;;;;;;294.25;137.50;;;;;;;;;;7334763;19;153999;-15
2022/08/29 03:41:52;;;;;;;286.65;133.35;;;;;;;;;;7334632;19;153826;-15
2022/08/29 03:44:26;;;;;;;290.63;134.45;;;;;;;;;;7334148;19;161819;-15
2022/08/29 03:46:57;;;;;;;287.23;134.80;;;;;;;;;;7334096;19;162426;-15
2022/08/29 03:49:28;;;;;;;272.55;124.82;;;;;;;;;;7334394;19;154043;-15
2022/08/29 03:52:00;;;;;;;290.75;132.50;;;;;;;;;;7334214;19;153742;-15
2022/08/29 03:54:32;;;;;;;278.13;130.95;;;;;;;;;;7332707;19;161830;-15
2022/08/29 03:57:03;;;;;;;288.08;135.15;;;;;;;;;;7331480;19;162410;-16
2022/08/29 03:59:37;;;;;;;281.27;131.80;;;;;;;;;;7333869;19;154047;-15
2022/08/29 04:02:09;;;;;;;269.83;123.40;;;;;;;;;;7336224;19;153807;-15
2022/08/29 04:07:26;;;;;;;267.95;130.02;;;;;;;;;;7333534;19;162701;-15
2022/08/29 04:09:58;;;;;;;275.02;127.43;;;;;;;;;;7333738;19;154040;-15
2022/08/29 04:12:29;;;;;;;262.30;125.47;;;;;;;;;;7332497;19;153721;-15
2022/08/29 04:15:06;;;;;;;274.33;131.57;;;;;;;;;;7333112;19;161861;-15
2022/08/29 04:17:38;;;;;;;274.95;128.45;;;;;;;;;;7333174;19;162450;-15
2022/08/29 04:20:11;;;;;;;272.52;126.40;;;;;;;;;;7333515;19;154108;-15
2022/08/29 04:22:44;;;;;;;272.15;126.60;;;;;;;;;;7333561;19;153714;-15
2022/08/29 04:25:16;;;;;;;267.70;124.63;;;;;;;;;;7331894;19;162418;-16
2022/08/29 04:27:48;;;;;;;;;;;;;;;;;;7333340;19;162463;-15
2022/08/29 04:30:24;;;;;;;257.85;123.22;;;;;;;;;;7333190;19;154446;-15
2022/08/29 04:32:55;;;;;;;261.92;126.10;;;;;;;;;;7337738;19;153975;-15
2022/08/29 04:35:27;;;;;;;262.65;125.35;;;;;;;;;;7332118;19;162066;-15
2022/08/29 04:38:00;;;;;;;268.95;125.03;;;;;;;;;;7332652;19;162733;-15
2022/08/29 04:40:32;;;;;;;266.55;125.45;;;;;;;;;;7332902;19;154009;-15
2022/08/29 04:43:04;;;;;;;252.40;120.18;;;;;;;;;;7332873;19;153998;-15
2022/08/29 04:45:39;;;;;;;259.27;124.22;;;;;;;;;;7332457;19;161991;-15
2022/08/29 04:48:10;;;;;;;252.70;120.60;;;;;;;;;;7332494;19;162385;-15
2022/08/29 04:50:41;;;;;;;250.50;123.10;;;;;;;;;;7332380;19;153949;-15
2022/08/29 04:53:13;;;;;;;260.88;122.00;;;;;;;;;;7332622;19;153889;-15
2022/08/29 04:55:44;;;;;;;259.45;123.22;;;;;;;;;;7329478;19;162069;-15
2022/08/29 04:58:15;;;;;;;256.65;123.32;;;;;;;;;;7332089;19;162519;-15
2022/08/29 05:00:49;;;;;;;245.95;119.03;;;;;;;;;;7332258;19;154055;-16
2022/08/29 05:03:21;;;;;;;256.83;118.35;;;;;;;;;;7332287;19;153713;-15
2022/08/29 05:05:58;;;;;;;246.95;117.90;;;;;;;;;;7331842;19;161930;-16
2022/08/29 05:08:30;;;;;;;243.32;120.75;;;;;;;;;;7331736;19;162439;-15
2022/08/29 05:11:01;;;;;;;244.30;114.13;;;;;;;;;;7331990;19;154081;-15
2022/08/29 05:13:35;;;;;;;248.50;117.68;;;;;;;;;;7329854;19;153674;-15
2022/08/29 05:16:12;;;;;;;247.32;119.10;;;;;;;;;;7330873;19;163081;-15
2022/08/29 05:18:45;;;;;;;250.00;122.07;;;;;;;;;;7331323;19;162392;-15
2022/08/29 05:21:25;;;;;;;235.77;112.00;;;;;;;;;;7335901;19;155880;-15
2022/08/29 05:23:57;;;;;;;246.88;117.72;;;;;;;;;;7331665;19;154098;-16
2022/08/29 05:26:32;;;;;;;220.80;105.73;;;;;;;;;;7331362;19;162981;-15
2022/08/29 05:29:04;;;;;;;202.23;98.13;;;;;;;;;;7331055;19;162643;-15
2022/08/29 05:31:39;;;;;;;172.48;85.88;;;;;;;;;;7332797;19;153826;-15
2022/08/29 05:34:12;;;;;;;154.10;74.88;;;;;;;;;;7331583;19;153656;-15
2022/08/29 05:36:45;;;;;;;137.50;64.68;;;;;;;;;;7329913;19;161963;-15
2022/08/29 05:39:16;;;;;;;145.15;68.18;;;;;;;;;;7330649;19;162383;-16
2022/08/29 05:41:48;;;;;;;133.07;64.05;;;;;;;;;;7331135;19;154217;-15
2022/08/29 05:44:19;;;;;;;127.50;58.10;;;;;;;;;;7331183;19;154005;-16
2022/08/29 05:46:52;;;;;;;106.70;53.30;;;;;;;;;;7330609;19;161857;-16
2022/08/29 05:49:24;;;;;;;99.35;47.92;;;;;;;;;;7330459;19;162663;-16
2022/08/29 05:51:59;;;;;;;96.45;46.55;;;;;;;;;;7329703;19;153869;-16
2022/08/29 05:54:30;;;;;;;96.07;46.20;;;;;;;;;;7329384;19;153537;-15
2022/08/29 05:57:01;;;;;;;87.57;41.83;;;;;;;;;;7329328;19;161807;-15
2022/08/29 05:59:34;;;;;;;84.70;40.25;;;;;;;;;;7328940;19;162622;-16
2022/08/29 06:02:14;;;;;;;81.47;41.25;;;;;;;;;;7331789;19;132613;-15
2022/08/29 06:04:45;;;;;;;83.85;41.33;;;;;;;;;;7330368;19;153392;-15
2022/08/29 06:07:21;;;;;;;77.53;39.50;;;;;;;;;;7330087;19;162167;-15
2022/08/29 06:09:53;;;;;;;79.88;38.05;;;;;;;;;;7329942;19;162273;-15
2022/08/29 06:12:26;;;;;;;67.05;34.00;;;;;;;;;;7330461;19;154167;-15
2022/08/29 06:14:57;;;;;;;71.97;35.60;;;;;;;;;;7330292;19;154269;-15
2022/08/29 06:17:31;;;;;;;62.75;33.13;;;;;;;;;;7327245;19;162037;-15
2022/08/29 06:20:02;;;;;;;64.25;31.02;;;;;;;;;;7329946;19;162150;-15
2022/08/29 06:22:34;;;;;;;54.65;28.67;;;;;;;;;;7329999;19;154219;-15
2022/08/29 06:25:10;;;;;;;57.33;30.17;;;;;;;;;;7329324;19;153961;-15
2022/08/29 06:27:58;;;;;;;49.88;27.77;;;;;;;;;;7329675;19;162161;-16
2022/08/29 06:30:29;;;;;;;56.55;29.35;;;;;;;;;;7329501;19;162415;-15
2022/08/29 06:33:03;;;;;;;51.67;29.27;;;;;;;;;;7333754;19;154154;-15
2022/08/29 06:35:34;;;;;;;49.20;28.52;;;;;;;;;;7329722;19;153657;-15
2022/08/29 06:38:05;;;;;;;54.20;27.55;;;;;;;;;;7326260;19;161693;-15
2022/08/29 06:40:38;;;;;;;51.35;26.50;;;;;;;;;;7329113;19;162649;-15
2022/08/29 06:43:09;;;;;;;48.15;26.38;;;;;;;;;;7329280;19;153938;-15
2022/08/29 06:45:45;;;;;;;47.03;24.67;;;;;;;;;;7329113;19;153642;-15
2022/08/29 06:48:19;;;;;;;50.70;25.73;;;;;;;;;;7328686;19;161861;-15
2022/08/29 06:50:54;;;;;;;47.05;24.20;;;;;;;;;;7328660;19;162420;-15
2022/08/29 06:53:25;;;;;;;46.50;25.67;;;;;;;;;;7329263;19;154420;-15
2022/08/29 06:55:57;;;;;;;49.00;25.83;;;;;;;;;;7324862;19;153987;-15
2022/08/29 06:58:28;;;;;;;50.65;25.15;;;;;;;;;;7326663;19;162048;-15
2022/08/29 07:01:00;;;;;;;42.35;22.00;;;;;;;;;;7328884;19;162569;-15
2022/08/29 07:03:34;;;;;;;44.10;23.85;;;;;;;;;;7328862;19;154243;-15
2022/08/29 07:06:05;;;;;;;44.85;25.42;;;;;;;;;;7328675;19;153631;-15
2022/08/29 07:08:38;;;;;;;44.58;24.52;;;;;;;;;;7328235;19;162074;-15
2022/08/29 07:11:12;;;;;;;42.65;23.50;;;;;;;;;;7328132;19;162432;-15
2022/08/29 07:13:43;;;;;;;48.80;25.00;;;;;;;;;;7328625;19;154173;-15
2022/08/29 07:16:17;;;;;;;44.20;23.77;;;;;;;;;;7330972;19;154392;-15
2022/08/29 07:18:53;;;;;;;42.67;24.52;;;;;;;;;;7325746;19;161758;-15
2022/08/29 07:21:26;;;;;;;45.72;24.08;;;;;;;;;;7327874;19;162556;-15
2022/08/29 07:24:01;;;;;;;38.83;22.52;;;;;;;;;;7328093;19;154063;-15
2022/08/29 07:26:35;;;;;;;43.28;22.77;;;;;;;;;;7326903;19;153760;-15
2022/08/29 07:29:10;;;;;;;40.83;22.92;;;;;;;;;;7327564;19;162005;-15
2022/08/29 07:31:42;;;;;;;43.75;24.08;;;;;;;;;;7328697;19;162780;-15
2022/08/29 07:34:18;;;;;;;37.53;22.55;;;;;;;;;;7327714;19;154046;-15
2022/08/29 07:36:50;;;;;;;37.78;21.70;;;;;;;;;;7333558;19;153881;-15
2022/08/29 07:39:26;;;;;;;35.35;22.02;;;;;;;;;;7332069;19;161976;-16
2022/08/29 07:41:57;;;;;;;38.97;23.40;;;;;;;;;;7334023;19;162439;-15
2022/08/29 07:44:28;;;;;;;40.78;22.67;;;;;;;;;;7334464;19;154028;-15
2022/08/29 07:47:02;;;;;;;43.30;22.27;;;;;;;;;;7333288;19;153845;-15
2022/08/29 07:49:39;;;;;;;37.00;22.88;;;;;;;;;;7333945;19;161818;-15
2022/08/29 07:52:11;;;;;;;42.53;23.58;;;;;;;;;;7333920;19;162277;-14
2022/08/29 07:54:43;;;;;;;37.85;22.38;;;;;;;;;;7332996;19;154160;-14
2022/08/29 07:57:14;;;;;;;42.10;23.40;;;;;;;;;;7334020;19;153614;-14
2022/08/29 07:59:45;;;;;;;40.28;23.33;;;;;;;;;;7331513;19;161835;-14
2022/08/29 08:02:17;;;;;;;40.60;22.35;;;;;;;;;;7336286;19;162671;-14
2022/08/29 08:04:50;;;;;;;40.25;22.45;;;;;;;;;;7333807;19;155095;-14
2022/08/29 08:07:22;;;;;;;43.42;22.23;;;;;;;;;;7333809;19;153798;-14
2022/08/29 08:09:53;;;;;;;37.13;22.00;;;;;;;;;;7332224;19;161674;-14
2022/08/29 08:12:25;;;;;;;35.72;22.00;;;;;;;;;;7333679;19;162621;-15
2022/08/29 08:14:57;;;;;;;37.42;21.77;;;;;;;;;;7332236;19;154499;-14
2022/08/29 08:17:28;;;;;;;38.55;21.92;;;;;;;;;;7331962;19;153845;-14
2022/08/29 08:20:02;;;;;;;38.85;21.42;;;;;;;;;;7330571;19;162298;-14
2022/08/29 08:22:36;;;;;;;40.17;21.05;;;;;;;;;;7332813;19;162507;-14
2022/08/29 08:25:08;;;;;;;36.00;19.77;;;;;;;;;;7333221;19;154055;-14
2022/08/29 08:27:39;;;;;;;32.30;20.57;;;;;;;;;;7333422;19;153612;-14
2022/08/29 08:30:12;;;;;;;39.38;21.75;;;;;;;;;;7335978;19;161976;-14
2022/08/29 08:32:44;;;;;;;37.35;20.75;;;;;;;;;;7336239;19;162369;-14
2022/08/29 08:35:19;;;;;;;33.58;20.55;;;;;;;;;;7333089;19;154089;-14
2022/08/29 08:37:52;;;;;;;41.75;21.75;;;;;;;;;;7332818;19;153798;-14
2022/08/29 08:40:29;;;;;;;32.33;20.65;;;;;;;;;;7329984;19;161845;-15
2022/08/29 08:43:03;;;;;;;36.22;21.70;;;;;;;;;;7332445;19;162305;-15
2022/08/29 08:45:39;;;;;;;34.22;21.00;;;;;;;;;;7332856;19;154291;-14
2022/08/29 08:48:15;;;;;;;34.15;20.08;;;;;;;;;;7329708;19;153527;-14
2022/08/29 08:50:52;;;;;;;35.53;21.10;;;;;;;;;;7330942;19;161852;-15
2022/08/29 08:53:31;;;;;;;38.42;23.77;;;;;;;;;;7332149;19;162308;-15
2022/08/29 08:56:15;;;;;;;40.78;22.35;;;;;;;;;;7332586;19;154009;-16
2022/08/29 08:58:53;;;;;;;34.55;20.10;;;;;;;;;;7331447;19;153650;-16
2022/08/29 09:01:28;;;;;;;34.25;21.60;;;;;;;;;;7332979;19;161781;-15
2022/08/29 09:04:28;;;;;;;36.65;21.50;;;;;;;;;;7331691;19;162588;-15
2022/08/29 09:07:18;;;;;;;32.80;21.80;;;;;;;;;;7334218;19;153823;-15
2022/08/29 09:10:01;;;;;;;35.00;20.75;;;;;;;;;;7332128;19;153524;-15
2022/08/29 09:12:43;;;;;;;34.05;20.80;;;;;;;;;;7330180;19;161854;-15
2022/08/29 09:15:22;;;;;;;35.73;21.27;;;;;;;;;;7331538;19;162441;-14
2022/08/29 09:17:59;;;;;;;33.70;21.67;;;;;;;;;;7331956;19;154467;-14
2022/08/29 09:20:33;;;;;;;34.90;21.67;;;;;;;;;;7329394;19;153725;-14
2022/08/29 09:23:14;;;;;;;34.42;21.52;;;;;;;;;;7331286;19;161740;-14
2022/08/29 09:25:45;;;;;;;36.28;21.95;;;;;;;;;;7331117;19;162354;-14
2022/08/29 09:28:17;;;;;;;38.83;22.67;;;;;;;;;;7331456;19;154431;-15
2022/08/29 09:31:19;;;;;;;31.60;21.60;;;;;;;;;;7331405;19;153762;-14
2022/08/29 09:33:53;;;;;;;36.87;22.63;;;;;;;;;;7331209;19;161977;-14
2022/08/29 09:36:43;;;;;;;32.58;20.40;;;;;;;;;;7330930;19;162055;-15
2022/08/29 09:39:22;;;;;;;35.50;22.88;;;;;;;;;;7330636;19;154142;-14
2022/08/29 09:41:56;;;;;;;35.22;20.23;;;;;;;;;;7329984;19;153861;-14
2022/08/29 09:44:31;;;;;;;36.72;21.77;;;;;;;;;;7330807;19;161705;-14
2022/08/29 09:47:11;;;;;;;32.95;21.13;;;;;;;;;;7330568;19;162575;-14
2022/08/29 09:50:01;;;;;;;38.22;22.52;;;;;;;;;;7330963;19;154033;-14
2022/08/29 09:52:33;;;;;;;36.83;20.48;;;;;;;;;;7330750;19;153927;-14
2022/08/29 09:55:25;;;;;;;31.77;20.13;;;;;;;;;;7328295;19;161888;-14
2022/08/29 09:58:02;;;;;;;37.42;20.17;;;;;;;;;;7328906;19;162787;-15
2022/08/29 10:00:36;;;;;;;36.13;20.92;;;;;;;;;;7328684;19;155542;-14
2022/08/29 10:03:10;;;;;;;37.70;21.38;;;;;;;;;;7334720;19;153612;-14
2022/08/29 10:05:44;;;;;;;32.40;20.52;;;;;;;;;;7330019;19;161807;-14
2022/08/29 10:08:33;;;;;;;34.78;19.80;;;;;;;;;;7329983;19;162366;-14
2022/08/29 10:11:19;;;;;;;35.40;20.20;;;;;;;;;;7330332;19;154030;-14
2022/08/29 10:13:57;;;;;;;32.65;19.88;;;;;;;;;;7330104;19;154511;-13
2022/08/29 10:16:39;;;;;;;32.60;19.42;;;;;;;;;;7329485;19;161665;-14
2022/08/29 10:19:15;;;;;;;33.45;20.90;;;;;;;;;;7329726;19;162551;-14
2022/08/29 10:22:04;;;;;;;36.13;21.25;;;;;;;;;;7328722;19;154245;-14
2022/08/29 10:24:55;;;;;;;28.08;18.25;;;;;;;;;;7329801;19;153621;-14
2022/08/29 10:27:36;;;;;;;32.63;19.15;;;;;;;;;;7328043;19;161835;-14
2022/08/29 10:30:11;;;;;;;31.33;20.60;;;;;;;;;;7329368;19;162531;-14
2022/08/29 10:33:06;;;;;;;29.40;17.77;;;;;;;;;;7333023;19;154219;-15
2022/08/29 10:35:42;;;;;;;31.13;19.63;;;;;;;;;;7329348;19;153567;-15
2022/08/29 10:38:24;;;;;;;33.45;21.10;;;;;;;;;;7330433;19;161998;-15
2022/08/29 10:41:04;;;;;;;33.33;18.73;;;;;;;;;;7326946;19;162381;-14
2022/08/29 10:43:46;;;;;;;31.00;17.35;;;;;;;;;;7327854;19;154073;-14
2022/08/29 10:46:38;;;;;;;33.42;20.60;;;;;;;;;;7328877;19;153650;-15
2022/08/29 10:49:19;;;;;;;25.23;16.67;;;;;;;;;;7327524;19;162127;-14
2022/08/29 10:51:58;;;;;;;26.98;18.50;;;;;;;;;;7327262;19;162424;-15
2022/08/29 10:54:41;;;;;;;30.40;17.98;;;;;;;;;;7327719;19;154033;-15
2022/08/29 10:57:18;;;;;;;30.45;17.88;;;;;;;;;;7328883;19;153486;-15
2022/08/29 11:00:00;;;;;;;29.15;18.13;;;;;;;;;;7328200;19;161867;-15
2022/08/29 11:02:37;;;;;;;28.02;17.27;;;;;;;;;;7330522;19;162470;-15
2022/08/29 11:05:15;;;;;;;30.70;17.92;;;;;;;;;;7328446;19;154345;-15
2022/08/29 11:07:49;;;;;;;23.13;15.38;;;;;;;;;;7326813;19;153634;-15
2022/08/29 11:10:24;;;;;;;22.00;16.40;;;;;;;;;;7329527;19;161822;-15
2022/08/29 11:13:00;;;;;;;22.80;15.18;;;;;;;;;;7334908;19;162597;-15
2022/08/29 11:15:41;;;;;;;19.85;12.75;;;;;;;;;;7335144;19;153974;-15
2022/08/29 11:18:28;;;;;;;23.35;14.98;;;;;;;;;;7334750;19;153784;-14
2022/08/29 11:21:14;;;;;;;17.25;11.68;;;;;;;;;;7333446;19;162018;-15
2022/08/29 11:23:51;;;;;;;24.48;10.70;;;;;;;;;;7334520;19;162531;-15
2022/08/29 11:26:38;;;;;;;11.55;7.85;;;;;;;;;;7334885;19;154137;-15
2022/08/29 11:29:19;;;;;;;17.05;8.68;;;;;;;;;;7334856;19;153559;-14
2022/08/29 11:32:00;;;;;;;14.38;6.93;;;;;;;;;;7335335;19;161765;-14
2022/08/29 11:34:47;;;;;;;13.32;7.47;;;;;;;;;;7334129;19;162615;-14
2022/08/29 11:37:45;;;;;;;14.02;7.45;;;;;;;;;;7334346;19;153991;-14
2022/08/29 11:40:28;;;;;;;13.75;7.35;;;;;;;;;;7334267;19;153726;-14
2022/08/29 11:43:24;;;;;;;13.00;7.28;;;;;;;;;;7332714;19;161911;-15
2022/08/29 11:46:00;;;;;;;13.52;6.15;;;;;;;;;;7333866;19;162489;-15
2022/08/29 11:48:38;;;;;;;10.43;7.03;;;;;;;;;;7334297;19;154108;-14
2022/08/29 11:51:36;;;;;;;12.45;6.25;;;;;;;;;;7334090;19;153623;-14
2022/08/29 11:54:49;;;;;;;13.35;6.75;;;;;;;;;;7331455;19;161896;-14
2022/08/29 11:57:50;;;;;;;13.43;6.70;;;;;;;;;;7331192;19;162450;-15
2022/08/29 12:00:41;;;;;;;11.48;6.32;;;;;;;;;;7334034;19;154160;-15
2022/08/29 12:03:48;;;;;;;12.23;6.35;;;;;;;;;;7338364;19;153599;-15
2022/08/29 12:06:26;;;;;;;9.88;5.93;;;;;;;;;;7331678;19;162064;-14
2022/08/29 12:09:03;;;;;;;10.48;5.35;;;;;;;;;;7333165;19;162665;-15
2022/08/29 12:12:09;;;;;;;13.68;6.30;;;;;;;;;;7333699;19;153780;-14
2022/08/29 12:14:43;;;;;;;15.13;6.15;;;;;;;;;;7333786;19;153512;-15
2022/08/29 12:17:42;;;;;;;9.32;5.55;;;;;;;;;;7333282;19;161647;-15
2022/08/29 12:20:43;;;;;;;15.85;6.63;;;;;;;;;;7333042;19;162858;-15
2022/08/29 12:23:26;;;;;;;13.50;5.57;;;;;;;;;;7333210;19;154073;-14
2022/08/29 12:25:59;;;;;;;10.00;5.03;;;;;;;;;;7331865;19;153877;-14
2022/08/29 12:28:58;;;;;;;8.95;5.45;;;;;;;;;;7332819;19;161952;-14
2022/08/29 12:31:43;;;;;;;8.10;4.80;;;;;;;;;;7333588;19;162511;-14
2022/08/29 12:34:35;;;;;;;19.70;10.75;;;;;;;;;;7333247;19;154116;-14
2022/08/29 12:37:44;;;;;;;16.33;9.23;;;;;;;;;;7333096;19;153777;-14
2022/08/29 12:40:45;;;;;;;15.90;8.65;;;;;;;;;;7331911;19;161980;-14
2022/08/29 12:43:28;;;;;;;14.18;8.15;;;;;;;;;;7330753;19;162647;-14
2022/08/29 12:46:00;;;;;;;13.65;8.02;;;;;;;;;;7335773;19;154030;-14
2022/08/29 12:48:36;;;;;;;17.17;8.10;;;;;;;;;;7332616;19;153673;-14
2022/08/29 12:51:08;;;;;;;12.52;7.43;;;;;;;;;;7332157;19;162071;-14
2022/08/29 12:53:40;;;;;;;8.43;5.55;;;;;;;;;;7331751;19;162571;-14
2022/08/29 12:56:22;;;;;;;11.88;5.53;;;;;;;;;;7331488;19;154162;-15
2022/08/29 12:58:57;;;;;;;8.77;5.57;;;;;;;;;;7332296;19;153569;-15
2022/08/29 13:01:31;;;;;;;6.93;4.63;;;;;;;;;;7332316;19;161892;-15
2022/08/29 13:04:06;;;;;;;8.40;5.40;;;;;;;;;;7331854;19;162573;-15
2022/08/29 13:06:37;;;;;;;13.43;5.82;;;;;;;;;;7332067;19;154087;-16
2022/08/29 13:09:11;;;;;;;9.57;5.10;;;;;;;;;;7335241;19;153593;-16
2022/08/29 13:11:44;;;;;;;13.10;4.47;;;;;;;;;;7331675;19;161810;-16
2022/08/29 13:14:15;;;;;;;10.18;4.30;;;;;;;;;;7331516;19;162439;-15
2022/08/29 13:16:51;;;;;;;12.60;4.93;;;;;;;;;;7331847;19;154059;-15
2022/08/29 13:19:23;;;;;;;13.93;5.93;;;;;;;;;;7331830;19;153316;-15
2022/08/29 13:22:04;;;;;;;12.10;5.57;;;;;;;;;;7330598;19;161866;-15
2022/08/29 13:24:36;;;;;;;13.02;5.18;;;;;;;;;;7331452;19;162378;-15
2022/08/29 13:27:10;;;;;;;12.52;6.53;;;;;;;;;;7331807;19;154122;-15
2022/08/29 13:29:43;;;;;;;11.30;5.95;;;;;;;;;;7331471;19;153531;-15
2022/08/29 13:32:25;;;;;;;9.98;5.85;;;;;;;;;;7332466;19;162404;-15
2022/08/29 13:35:05;;;;;;;12.35;6.57;;;;;;;;;;7333282;19;162702;-15
2022/08/29 13:37:39;;;;;;;10.18;5.93;;;;;;;;;;7331343;19;154139;-15
2022/08/29 13:40:35;;;;;;;15.02;6.03;;;;;;;;;;7331200;19;153569;-15
2022/08/29 13:43:26;;;;;;;12.23;6.00;;;;;;;;;;7328802;19;162036;-15
2022/08/29 13:46:05;;;;;;;8.68;5.85;;;;;;;;;;7329916;19;162667;-15
2022/08/29 13:48:36;;;;;;;10.88;6.07;;;;;;;;;;7334350;19;154243;-15
2022/08/29 13:51:08;;;;;;;9.95;6.25;;;;;;;;;;7330949;19;153735;-15
2022/08/29 13:53:39;;;;;;;8.35;5.25;;;;;;;;;;7330175;19;161905;-15
2022/08/29 13:56:23;;;;;;;20.05;6.03;;;;;;;;;;7330671;19;162424;-16
2022/08/29 13:58:59;;;;;;;13.77;6.22;;;;;;;;;;7330784;19;154194;-15
2022/08/29 14:01:30;;;;;;;9.70;6.03;;;;;;;;;;7329217;19;153688;-16
2022/08/29 14:04:22;;;;;;;8.63;4.97;;;;;;;;;;7333468;19;162035;-15
2022/08/29 14:07:11;;;;;;;9.73;5.80;;;;;;;;;;7333800;19;162369;-15
2022/08/29 14:09:44;;;;;;;8.45;5.35;;;;;;;;;;7330752;19;154070;-15
2022/08/29 14:12:17;;;;;;;10.73;5.30;;;;;;;;;;7330521;19;153577;-15
2022/08/29 14:14:50;;;;;;;;;;;;;;;;;;7330484;19;161729;-15
2022/08/29 14:17:22;;;;;;;9.05;5.72;;;;;;;;;;7329910;19;162518;-14
2022/08/29 14:19:54;;;;;;;9.60;5.07;;;;;;;;;;7330440;19;154206;-14
2022/08/29 14:22:25;;;;;;;7.87;5.57;;;;;;;;;;7329514;19;153604;-14
2022/08/29 14:24:57;;;;;;;9.85;5.25;;;;;;;;;;7328385;19;161983;-14
2022/08/29 14:27:28;;;;;;;8.60;5.18;;;;;;;;;;7328485;19;162389;-14
2022/08/29 14:30:02;;;;;;;12.45;6.32;;;;;;;;;;7330040;19;154531;-14
2022/08/29 14:32:36;;;;;;;9.05;5.05;;;;;;;;;;7329809;19;153585;-14
2022/08/29 14:35:09;;;;;;;8.05;5.05;;;;;;;;;;7329280;19;161941;-14
2022/08/29 14:37:41;;;;;;;8.98;5.43;;;;;;;;;;7331140;19;162434;-14
2022/08/29 14:40:15;;;;;;;8.40;5.53;;;;;;;;;;7326002;19;154119;-14
2022/08/29 14:42:46;;;;;;;10.75;5.40;;;;;;;;;;7327685;19;153707;-17
2022/08/29 14:45:20;;;;;;;11.50;5.72;;;;;;;;;;7330134;19;162030;-14
2022/08/29 14:47:53;;;;;;;20.30;5.78;;;;;;;;;;7331273;19;162344;-14
2022/08/29 14:50:25;;;;;;;12.20;5.90;;;;;;;;;;7330188;19;154041;-14
2022/08/29 14:52:56;;;;;;;14.73;5.40;;;;;;;;;;7332352;19;153728;-14
2022/08/29 14:55:28;;;;;;;7.97;5.45;;;;;;;;;;7328993;19;161722;-14
2022/08/29 14:57:59;;;;;;;13.00;5.47;;;;;;;;;;7332575;19;162722;-14